createdAt,value
2018-05-09T00:00:49.377Z,6.20
2018-05-09T00:03:27.120Z,4.82
2018-05-09T00:06:03.325Z,4.78
2018-05-09T00:08:40.524Z,5.03
2018-05-09T00:11:17.993Z,4.87
2018-05-09T00:13:55.489Z,5.75
2018-05-09T00:16:33.540Z,6.18
2018-05-09T00:19:09.945Z,5.43
2018-05-09T00:21:47.201Z,5.60
2018-05-09T00:24:24.584Z,6.07
2018-05-09T00:27:02.155Z,5.62
2018-05-09T00:29:40.369Z,6.15
2018-05-09T00:32:17.348Z,5.68
2018-05-09T00:34:55.301Z,5.28
2018-05-09T00:37:32.146Z,5.87
2018-05-09T00:40:10.354Z,6.62
2018-05-09T00:42:48.797Z,5.87
2018-05-09T00:45:25.158Z,5.70
2018-05-09T00:48:02.861Z,6.45
2018-05-09T00:50:39.620Z,6.40
2018-05-09T00:53:16.474Z,6.12
2018-05-09T00:55:54.219Z,5.95
2018-05-09T00:58:31.271Z,5.80
2018-05-09T01:01:07.601Z,6.93
2018-05-09T01:03:45.557Z,7.03
2018-05-09T01:06:22.086Z,7.03
2018-05-09T01:08:59.742Z,6.68
2018-05-09T01:11:37.785Z,7.87
2018-05-09T01:14:15.402Z,7.07
2018-05-09T01:16:54.121Z,7.62
2018-05-09T01:19:30.607Z,7.72
2018-05-09T01:22:08.289Z,7.20
2018-05-09T01:24:44.860Z,6.87
2018-05-09T01:27:21.270Z,7.40
2018-05-09T01:29:58.938Z,7.28
2018-05-09T01:32:35.803Z,9.07
2018-05-09T01:35:12.804Z,10.35
2018-05-09T01:37:49.433Z,9.90
2018-05-09T01:40:28.710Z,11.15
2018-05-09T01:43:05.577Z,11.52
2018-05-09T01:45:42.230Z,10.73
2018-05-09T01:48:21.057Z,10.90
2018-05-09T01:50:58.146Z,10.27
2018-05-09T01:53:36.292Z,9.35
2018-05-09T01:56:13.126Z,8.85
2018-05-09T01:58:49.764Z,9.85
2018-05-09T02:01:27.602Z,8.38
2018-05-09T02:04:05.671Z,7.85
2018-05-09T02:06:42.031Z,8.60
2018-05-09T02:09:20.958Z,6.87
2018-05-09T02:11:59.302Z,6.18
2018-05-09T02:14:37.673Z,7.43
2018-05-09T02:17:13.985Z,7.35
2018-05-09T02:19:50.287Z,9.43
2018-05-09T02:22:27.037Z,9.02
2018-05-09T02:25:04.696Z,9.98
2018-05-09T02:27:41.264Z,8.75
2018-05-09T02:30:18.595Z,9.80
2018-05-09T02:32:56.341Z,8.73
2018-05-09T02:35:34.390Z,10.32
2018-05-09T02:38:11.846Z,10.65
2018-05-09T02:40:48.642Z,9.13
2018-05-09T02:43:25.305Z,10.32
2018-05-09T02:46:02.905Z,9.10
2018-05-09T02:48:39.569Z,8.93
2018-05-09T02:51:16.477Z,8.93
2018-05-09T02:53:53.142Z,8.85
2018-05-09T02:56:31.159Z,8.65
2018-05-09T02:59:09.103Z,7.22
2018-05-09T03:01:45.739Z,8.07
2018-05-09T03:04:23.624Z,8.27
2018-05-09T03:07:01.457Z,8.75
2018-05-09T03:09:38.693Z,8.77
2018-05-09T03:12:16.099Z,7.93
2018-05-09T03:14:53.165Z,7.90
2018-05-09T03:17:30.040Z,8.60
2018-05-09T03:20:07.393Z,9.15
2018-05-09T03:22:44.613Z,9.60
2018-05-09T03:25:21.974Z,9.70
2018-05-09T03:28:00.840Z,9.82
2018-05-09T03:30:38.317Z,9.73
2018-05-09T03:33:15.129Z,9.32
2018-05-09T03:35:51.745Z,9.60
2018-05-09T03:38:30.492Z,9.13
2018-05-09T03:41:07.169Z,9.88
2018-05-09T03:43:45.013Z,11.37
2018-05-09T03:46:23.747Z,10.45
2018-05-09T03:49:01.845Z,10.30
2018-05-09T03:51:39.071Z,9.20
2018-05-09T03:54:15.821Z,9.98
2018-05-09T03:56:52.713Z,9.60
2018-05-09T03:59:29.993Z,10.07
2018-05-09T04:02:23.190Z,11.43
2018-05-09T04:05:19.173Z,10.35
2018-05-09T04:08:14.808Z,9.40
2018-05-09T04:10:51.365Z,10.05
2018-05-09T04:13:28.969Z,10.57
2018-05-09T04:16:05.970Z,10.00
2018-05-09T04:18:43.837Z,9.20
2018-05-09T04:21:21.062Z,9.57
2018-05-09T04:23:57.794Z,11.00
2018-05-09T04:26:34.484Z,10.00
2018-05-09T04:29:13.114Z,10.52
2018-05-09T04:31:50.782Z,10.20
2018-05-09T04:34:28.805Z,10.18
2018-05-09T04:37:07.007Z,10.10
2018-05-09T04:39:43.881Z,11.02
2018-05-09T04:42:21.090Z,9.02
2018-05-09T04:44:58.722Z,8.32
2018-05-09T04:47:37.609Z,8.55
2018-05-09T04:50:15.295Z,9.02
2018-05-09T04:52:53.481Z,8.68
2018-05-09T04:55:30.550Z,8.48
2018-05-09T04:58:08.085Z,8.35
2018-05-09T05:00:45.238Z,8.95
2018-05-09T05:03:22.871Z,7.72
2018-05-09T05:06:01.173Z,8.93
2018-05-09T05:08:39.353Z,8.68
2018-05-09T05:11:16.669Z,8.20
2018-05-09T05:13:53.936Z,8.40
2018-05-09T05:16:31.230Z,8.55
2018-05-09T05:19:08.511Z,8.38
2018-05-09T05:21:44.985Z,8.43
2018-05-09T05:24:21.853Z,8.18
2018-05-09T05:26:59.989Z,8.48
2018-05-09T05:29:38.381Z,8.20
2018-05-09T05:32:15.298Z,8.90
2018-05-09T05:34:53.216Z,7.70
2018-05-09T05:37:31.749Z,7.85
2018-05-09T05:40:10.398Z,7.32
2018-05-09T05:42:48.093Z,9.02
2018-05-09T05:45:24.832Z,8.18
2018-05-09T05:48:03.282Z,8.02
2018-05-09T05:50:39.957Z,6.97
2018-05-09T05:53:16.853Z,8.03
2018-05-09T05:55:56.389Z,8.27
2018-05-09T05:58:33.764Z,7.60
2018-05-09T06:01:10.145Z,7.03
2018-05-09T06:03:48.215Z,7.45
2018-05-09T06:06:27.184Z,7.37
2018-05-09T06:09:03.855Z,7.17
2018-05-09T06:11:41.298Z,7.20
2018-05-09T06:14:19.546Z,7.57
2018-05-09T06:16:56.939Z,7.30
2018-05-09T06:19:35.438Z,6.97
2018-05-09T06:22:13.635Z,6.87
2018-05-09T06:24:51.436Z,7.70
2018-05-09T06:27:28.117Z,6.57
2018-05-09T06:30:06.025Z,6.90
2018-05-09T06:32:42.622Z,7.67
2018-05-09T06:35:20.643Z,10.03
2018-05-09T06:37:58.810Z,9.70
2018-05-09T06:40:35.800Z,7.43
2018-05-09T06:43:12.276Z,7.63
2018-05-09T06:45:49.438Z,8.60
2018-05-09T06:48:26.142Z,8.40
2018-05-09T06:51:03.090Z,6.37
2018-05-09T06:53:39.570Z,7.27
2018-05-09T06:56:16.818Z,7.57
2018-05-09T06:58:53.749Z,9.13
2018-05-09T07:01:32.255Z,8.07
2018-05-09T07:04:10.251Z,7.77
2018-05-09T07:06:47.979Z,7.00
2018-05-09T07:09:25.335Z,6.20
2018-05-09T07:12:03.949Z,6.50
2018-05-09T07:14:41.741Z,6.80
2018-05-09T07:17:19.986Z,6.53
2018-05-09T07:19:56.893Z,6.33
2018-05-09T07:22:35.135Z,5.87
2018-05-09T07:25:11.505Z,5.77
2018-05-09T07:27:48.801Z,6.20
2018-05-09T07:30:26.681Z,5.63
2018-05-09T07:33:04.421Z,6.00
2018-05-09T07:35:42.494Z,5.20
2018-05-09T07:38:19.217Z,5.37
2018-05-09T07:40:57.065Z,5.40
2018-05-09T07:43:34.185Z,5.50
2018-05-09T07:46:11.077Z,5.33
2018-05-09T07:48:49.320Z,4.60
2018-05-09T07:51:27.214Z,3.00
2018-05-09T07:54:05.013Z,3.07
2018-05-09T07:56:42.163Z,3.57
2018-05-09T07:59:19.793Z,3.23
2018-05-09T08:01:57.745Z,2.73
2018-05-09T08:04:35.700Z,2.90
2018-05-09T08:07:14.109Z,3.33
2018-05-09T08:09:51.846Z,2.63
2018-05-09T08:12:29.096Z,2.47
2018-05-09T08:15:07.061Z,3.43
2018-05-09T08:17:44.904Z,3.77
2018-05-09T08:20:23.251Z,4.17
2018-05-09T08:23:01.225Z,4.30
2018-05-09T08:25:38.826Z,3.60
2018-05-09T08:28:17.040Z,3.50
2018-05-09T08:30:54.610Z,5.47
2018-05-09T08:33:32.054Z,3.50
2018-05-09T08:36:09.638Z,3.10
2018-05-09T08:38:47.817Z,3.80
2018-05-09T08:41:24.801Z,3.60
2018-05-09T08:44:01.801Z,3.27
2018-05-09T08:46:40.014Z,3.47
2018-05-09T08:49:17.593Z,4.03
2018-05-09T08:51:56.366Z,3.53
2018-05-09T08:54:32.935Z,3.90
2018-05-09T08:57:09.770Z,4.00
2018-05-09T08:59:46.553Z,4.50
2018-05-09T09:02:23.621Z,3.67
2018-05-09T09:05:00.689Z,4.00
2018-05-09T09:07:37.994Z,3.90
2018-05-09T09:10:14.936Z,4.23
2018-05-09T09:12:52.587Z,3.73
2018-05-09T09:15:29.652Z,3.90
2018-05-09T09:18:08.060Z,3.90
2018-05-09T09:20:45.377Z,3.70
2018-05-09T09:23:23.081Z,4.20
2018-05-09T09:25:59.910Z,3.30
2018-05-09T09:28:36.801Z,3.60
2018-05-09T09:31:13.546Z,3.80
2018-05-09T09:33:51.092Z,4.20
2018-05-09T09:36:28.115Z,4.10
2018-05-09T09:39:04.034Z,3.70
2018-05-09T09:41:41.777Z,3.97
2018-05-09T09:44:20.585Z,3.67
2018-05-09T09:46:57.630Z,4.10
2018-05-09T09:49:33.900Z,3.67
2018-05-09T09:52:11.838Z,3.50
2018-05-09T09:54:49.913Z,3.97
2018-05-09T09:57:27.647Z,3.33
2018-05-09T10:00:03.839Z,3.77
2018-05-09T10:02:41.584Z,3.53
2018-05-09T10:05:18.912Z,3.70
2018-05-09T10:07:55.979Z,3.93
2018-05-09T10:10:32.409Z,3.67
2018-05-09T10:13:08.613Z,3.30
2018-05-09T10:15:45.461Z,3.53
2018-05-09T10:18:22.573Z,3.70
2018-05-09T10:20:59.561Z,3.50
2018-05-09T10:23:37.159Z,3.50
2018-05-09T10:26:15.380Z,3.57
2018-05-09T10:28:52.336Z,3.93
2018-05-09T10:31:29.638Z,3.30
2018-05-09T10:34:07.326Z,3.17
2018-05-09T10:36:44.510Z,3.50
2018-05-09T10:39:22.013Z,4.00
2018-05-09T10:42:00.046Z,3.20
2018-05-09T10:44:37.402Z,3.00
2018-05-09T10:47:14.890Z,3.60
2018-05-09T10:49:53.209Z,3.50
2018-05-09T10:52:30.454Z,3.40
2018-05-09T10:55:07.066Z,3.30
2018-05-09T10:57:45.260Z,2.97
2018-05-09T11:00:22.068Z,3.10
2018-05-09T11:03:00.961Z,2.50
2018-05-09T11:05:37.797Z,2.83
2018-05-09T11:08:16.694Z,3.07
2018-05-09T11:10:54.949Z,2.73
2018-05-09T11:13:31.834Z,2.80
2018-05-09T11:16:08.888Z,3.30
2018-05-09T11:18:47.687Z,2.90
2018-05-09T11:21:26.190Z,2.90
2018-05-09T11:24:04.008Z,3.00
2018-05-09T11:26:41.442Z,2.90
2018-05-09T11:29:19.504Z,3.00
2018-05-09T11:31:57.683Z,3.13
2018-05-09T11:34:34.657Z,2.37
2018-05-09T11:37:13.594Z,3.27
2018-05-09T11:39:51.085Z,3.00
2018-05-09T11:42:27.273Z,2.87
2018-05-09T11:45:04.858Z,3.10
2018-05-09T11:47:41.620Z,3.17
2018-05-09T11:50:19.349Z,3.27
2018-05-09T11:52:56.582Z,3.30
2018-05-09T11:55:34.494Z,3.10
2018-05-09T11:58:12.522Z,3.73
2018-05-09T12:00:49.361Z,3.13
2018-05-09T12:03:29.282Z,3.37
2018-05-09T12:06:05.669Z,3.47
2018-05-09T12:08:43.970Z,3.70
2018-05-09T12:11:20.763Z,3.67
2018-05-09T12:13:59.907Z,5.00
2018-05-09T12:16:38.200Z,4.10
2018-05-09T12:19:14.712Z,4.03
2018-05-09T12:21:52.333Z,4.20
2018-05-09T12:24:29.294Z,3.87
2018-05-09T12:27:14.944Z,4.30
2018-05-09T12:29:52.461Z,3.97
2018-05-09T12:32:30.008Z,3.97
2018-05-09T12:35:07.602Z,4.13
2018-05-09T12:37:44.239Z,4.07
2018-05-09T12:40:21.888Z,4.50
2018-05-09T12:42:59.762Z,4.03
2018-05-09T12:45:36.534Z,4.23
2018-05-09T12:48:12.606Z,3.90
2018-05-09T12:50:49.233Z,3.77
2018-05-09T12:53:27.693Z,3.93
2018-05-09T12:56:04.982Z,3.63
2018-05-09T12:58:41.520Z,3.93
2018-05-09T13:01:18.493Z,4.10
2018-05-09T13:03:56.754Z,3.63
2018-05-09T13:06:36.318Z,3.93
2018-05-09T13:09:13.933Z,4.10
2018-05-09T13:11:50.549Z,4.10
2018-05-09T13:14:28.185Z,3.83
2018-05-09T13:17:06.161Z,4.13
2018-05-09T13:19:42.221Z,4.77
2018-05-09T13:22:20.626Z,4.37
2018-05-09T13:24:57.289Z,4.40
2018-05-09T13:27:35.295Z,4.73
2018-05-09T13:30:12.430Z,4.57
2018-05-09T13:32:49.789Z,5.07
2018-05-09T13:35:27.072Z,4.90
2018-05-09T13:38:04.033Z,5.47
2018-05-09T13:40:41.336Z,5.40
2018-05-09T13:43:18.334Z,5.17
2018-05-09T13:45:55.670Z,5.97
2018-05-09T13:48:33.786Z,5.63
2018-05-09T13:51:11.930Z,5.73
2018-05-09T13:53:48.407Z,5.80
2018-05-09T13:56:25.695Z,6.30
2018-05-09T13:59:02.677Z,5.93
2018-05-09T14:01:41.157Z,5.80
2018-05-09T14:04:19.073Z,4.90
2018-05-09T14:06:56.362Z,5.23
2018-05-09T14:09:34.753Z,5.47
2018-05-09T14:12:11.498Z,5.00
2018-05-09T14:14:47.972Z,4.47
2018-05-09T14:17:25.213Z,5.60
2018-05-09T14:20:01.373Z,5.23
2018-05-09T14:22:39.154Z,5.60
2018-05-09T14:25:19.888Z,5.67
2018-05-09T14:27:58.316Z,5.47
2018-05-09T14:30:35.391Z,5.43
2018-05-09T14:33:13.758Z,5.73
2018-05-09T14:35:50.910Z,5.83
2018-05-09T14:38:28.182Z,5.20
2018-05-09T14:41:05.094Z,6.10
2018-05-09T14:43:41.746Z,5.80
2018-05-09T14:46:18.463Z,5.07
2018-05-09T14:48:55.716Z,6.43
2018-05-09T14:51:32.691Z,5.87
2018-05-09T14:54:09.751Z,6.17
2018-05-09T14:56:47.187Z,6.00
2018-05-09T14:59:24.573Z,6.50
2018-05-09T15:02:03.021Z,6.67
2018-05-09T15:04:41.506Z,6.60
2018-05-09T15:07:18.547Z,6.63
2018-05-09T15:09:55.370Z,6.73
2018-05-09T15:12:32.241Z,6.07
2018-05-09T15:15:08.729Z,6.70
2018-05-09T15:17:46.006Z,6.60
2018-05-09T15:20:24.519Z,6.10
2018-05-09T15:23:02.120Z,6.30
2018-05-09T15:25:38.987Z,6.50
2018-05-09T15:28:16.846Z,6.53
2018-05-09T15:30:55.221Z,5.43
2018-05-09T15:33:33.807Z,5.37
2018-05-09T15:36:11.870Z,6.57
2018-05-09T15:38:49.439Z,6.00
2018-05-09T15:41:26.421Z,5.97
2018-05-09T15:44:04.273Z,6.20
2018-05-09T15:46:40.810Z,5.80
2018-05-09T15:49:18.819Z,5.43
2018-05-09T15:51:56.859Z,5.90
2018-05-09T15:54:34.301Z,5.77
2018-05-09T15:57:10.993Z,5.70
2018-05-09T15:59:47.653Z,5.90
2018-05-09T16:02:24.961Z,6.60
2018-05-09T16:05:01.669Z,6.63
2018-05-09T16:07:39.877Z,6.00
2018-05-09T16:10:17.426Z,5.67
2018-05-09T16:12:54.521Z,6.33
2018-05-09T16:15:32.559Z,6.03
2018-05-09T16:18:09.193Z,5.50
2018-05-09T16:20:47.196Z,5.50
2018-05-09T16:23:24.481Z,5.03
2018-05-09T16:26:01.378Z,5.53
2018-05-09T16:28:39.105Z,5.67
2018-05-09T16:31:17.754Z,5.23
2018-05-09T16:33:55.022Z,5.50
2018-05-09T16:36:32.465Z,5.87
2018-05-09T16:39:10.345Z,5.40
2018-05-09T16:41:47.712Z,5.33
2018-05-09T16:44:25.985Z,5.20
2018-05-09T16:47:03.161Z,5.77
2018-05-09T16:49:39.797Z,5.37
2018-05-09T16:52:18.046Z,5.33
2018-05-09T16:54:56.604Z,5.27
2018-05-09T16:57:32.242Z,5.80
2018-05-09T17:00:09.585Z,6.30
2018-05-09T17:02:46.919Z,5.13
2018-05-09T17:05:23.986Z,5.53
2018-05-09T17:08:00.822Z,5.30
2018-05-09T17:10:37.848Z,6.20
2018-05-09T17:13:15.777Z,5.07
2018-05-09T17:15:52.778Z,5.10
2018-05-09T17:18:30.281Z,6.00
2018-05-09T17:21:05.825Z,6.57
2018-05-09T17:23:42.391Z,6.07
2018-05-09T17:26:18.592Z,5.97
2018-05-09T17:28:55.119Z,6.00
2018-05-09T17:31:31.752Z,5.30
2018-05-09T17:34:08.941Z,5.90
2018-05-09T17:36:46.416Z,5.50
2018-05-09T17:39:23.422Z,6.57
2018-05-09T17:41:59.913Z,6.27
2018-05-09T17:44:38.154Z,6.07
2018-05-09T17:47:15.526Z,6.00
2018-05-09T17:49:51.978Z,6.20
2018-05-09T17:52:28.874Z,6.27
2018-05-09T17:55:05.501Z,6.90
2018-05-09T17:57:42.128Z,6.53
2018-05-09T18:00:19.805Z,6.23
2018-05-09T18:02:55.998Z,6.17
2018-05-09T18:05:33.198Z,6.10
2018-05-09T18:08:09.977Z,6.67
2018-05-09T18:10:46.523Z,5.97
2018-05-09T18:13:24.031Z,6.77
2018-05-09T18:16:01.717Z,7.27
2018-05-09T18:18:38.660Z,7.50
2018-05-09T18:21:16.669Z,7.50
2018-05-09T18:23:55.834Z,7.27
2018-05-09T18:26:32.980Z,8.50
2018-05-09T18:29:09.984Z,7.70
2018-05-09T18:31:46.942Z,7.10
2018-05-09T18:34:23.870Z,7.53
2018-05-09T18:37:02.873Z,7.57
2018-05-09T18:39:40.754Z,7.63
2018-05-09T18:42:18.534Z,7.10
2018-05-09T18:44:55.031Z,6.90
2018-05-09T18:47:33.014Z,7.37
2018-05-09T18:50:09.497Z,7.97
2018-05-09T18:52:46.757Z,8.30
2018-05-09T18:55:23.022Z,7.13
2018-05-09T18:58:00.832Z,7.53
2018-05-09T19:00:36.894Z,7.70
2018-05-09T19:03:14.183Z,7.60
2018-05-09T19:05:50.734Z,7.83
2018-05-09T19:08:27.022Z,8.60
2018-05-09T19:11:05.537Z,7.90
2018-05-09T19:13:42.303Z,8.23
2018-05-09T19:16:20.807Z,7.17
2018-05-09T19:18:59.481Z,9.27
2018-05-09T19:21:36.626Z,8.10
2018-05-09T19:24:13.737Z,8.77
2018-05-09T19:26:50.474Z,8.73
2018-05-09T19:29:27.261Z,7.30
2018-05-09T19:32:03.616Z,7.50
2018-05-09T19:34:42.241Z,8.50
2018-05-09T19:37:19.412Z,7.93
2018-05-09T19:39:57.297Z,8.00
2018-05-09T19:42:34.601Z,7.97
2018-05-09T19:45:12.810Z,8.40
2018-05-09T19:47:48.844Z,8.40
2018-05-09T19:50:27.057Z,7.67
2018-05-09T19:53:05.345Z,8.10
2018-05-09T19:55:44.641Z,7.77
2018-05-09T19:58:23.712Z,7.70
2018-05-09T20:01:00.902Z,8.50
2018-05-09T20:03:37.488Z,8.00
2018-05-09T20:06:13.736Z,7.33
2018-05-09T20:08:50.674Z,6.90
2018-05-09T20:11:26.899Z,7.20
2018-05-09T20:14:04.785Z,7.20
2018-05-09T20:16:41.197Z,7.20
2018-05-09T20:19:18.550Z,7.50
2018-05-09T20:21:56.104Z,7.50
2018-05-09T20:24:33.993Z,7.23
2018-05-09T20:27:12.250Z,7.87
2018-05-09T20:29:49.484Z,7.30
2018-05-09T20:32:39.460Z,9.03
2018-05-09T20:35:16.140Z,9.70
2018-05-09T20:37:53.479Z,9.17
2018-05-09T20:40:30.510Z,9.30
2018-05-09T20:43:07.562Z,11.50
2018-05-09T20:45:45.516Z,9.30
2018-05-09T20:48:23.183Z,10.37
2018-05-09T20:51:02.327Z,10.47
2018-05-09T20:53:40.168Z,10.33
2018-05-09T20:56:16.766Z,9.87
2018-05-09T20:58:53.709Z,10.07
2018-05-09T21:01:48.172Z,9.97
2018-05-09T21:04:26.857Z,9.97
2018-05-09T21:07:04.342Z,9.77
2018-05-09T21:09:44.954Z,10.83
2018-05-09T21:12:26.049Z,9.37
2018-05-09T21:15:01.701Z,9.43
2018-05-09T21:17:40.137Z,11.23
2018-05-09T21:20:17.951Z,10.57
2018-05-09T21:22:54.705Z,11.17
2018-05-09T21:25:30.940Z,10.43
2018-05-09T21:28:09.184Z,11.80
2018-05-09T21:30:47.041Z,10.87
2018-05-09T21:33:25.524Z,10.83
2018-05-09T21:36:04.127Z,11.67
2018-05-09T21:38:43.022Z,11.83
2018-05-09T21:41:20.126Z,11.93
2018-05-09T21:43:58.544Z,11.83
2018-05-09T21:46:35.142Z,10.67
2018-05-09T21:49:11.693Z,9.93
2018-05-09T21:51:48.105Z,10.40
2018-05-09T21:54:25.947Z,11.33
2018-05-09T21:57:03.622Z,12.93
2018-05-09T21:59:41.781Z,13.03
2018-05-09T22:02:18.889Z,14.40
2018-05-09T22:04:56.971Z,12.20
2018-05-09T22:07:34.365Z,12.57
2018-05-09T22:10:10.586Z,12.77
2018-05-09T22:12:47.265Z,12.93
2018-05-09T22:15:24.262Z,12.57
2018-05-09T22:18:00.489Z,13.23
2018-05-09T22:20:38.274Z,12.97
2018-05-09T22:23:15.232Z,11.90
2018-05-09T22:25:52.177Z,12.60
2018-05-09T22:28:30.367Z,10.80
2018-05-09T22:31:07.361Z,10.13
2018-05-09T22:33:44.322Z,9.40
2018-05-09T22:36:22.061Z,11.33
2018-05-09T22:39:00.111Z,10.40
2018-05-09T22:41:36.801Z,10.18
2018-05-09T22:44:14.397Z,10.43
2018-05-09T22:46:51.685Z,9.57
2018-05-09T22:49:27.918Z,10.00
2018-05-09T22:52:04.420Z,9.70
2018-05-09T22:54:42.317Z,10.83
2018-05-09T22:57:18.658Z,9.63
2018-05-09T22:59:56.264Z,11.32
2018-05-09T23:02:33.841Z,12.02
2018-05-09T23:05:12.386Z,11.40
2018-05-09T23:07:48.609Z,13.20
2018-05-09T23:10:25.838Z,11.83
2018-05-09T23:13:02.609Z,11.20
2018-05-09T23:15:39.601Z,10.77
2018-05-09T23:18:16.543Z,11.15
2018-05-09T23:20:52.808Z,10.65
2018-05-09T23:23:30.676Z,10.37
2018-05-09T23:26:07.534Z,10.88
2018-05-09T23:28:45.320Z,9.87
2018-05-09T23:31:21.872Z,10.40
2018-05-09T23:33:58.867Z,9.17
2018-05-09T23:36:35.665Z,9.95
2018-05-09T23:39:13.524Z,9.70
2018-05-09T23:41:51.635Z,9.90
2018-05-09T23:44:28.315Z,10.88
2018-05-09T23:47:06.182Z,11.32
2018-05-09T23:49:43.509Z,12.30
2018-05-09T23:52:22.320Z,11.07
2018-05-09T23:54:58.458Z,11.23
2018-05-09T23:57:35.349Z,12.05
